Terminal Aerodrome Forecast
Issued by NWS

Home | Current Version | Previous Version | Text Only | Print | Product List | Glossary On
Versions: 1 2 3 4 5 6 7 8 9 10 11 12
000
FTUS42 KMLB 300500
TAFLEE
TAF
KLEE 300536Z 3006/3106 00000KT P6SM SCT250
      TEMPO 3011/3013 5SM BR
     FM301400 32010G17KT P6SM BKN040
     FM302100 34011G18KT P6SM SCT040 BKN250
     FM310100 36006KT P6SM SCT250=

USA.gov is the U.S. government's official web portal to all federal, state and local government web resources and services.